BBC Brazil — V7DV7 — position and weather

sailwx.info

Track history (hours):
 
Tides and Currents Weather Stations Pressure Air Temp Water Temp Dewpoint Dewpoint Depression Visibility Wind Speed Wind Dir Waves Ship Positions

BBC Brazil

Last reported at 2018-May-10 07:09 UTC. Time now 2018-May-22 18:00 UTC.
Position N 18°43' W 107°29'.
Warning: this ship's position is 12 days out of date.

Length 228 m; draft 11 m.

Type: Ship. MMSI: 538005439.

Date/timePositionNaut miles runAvg speedWind from/ knotsBaromVisibWave heightAir tempDewpointWater temp
2018-May-10 07:09N 18°43' W 107°29'212.9
2018-May-10 06:59N 18°42' W 107°27'612.9
2018-May-10 06:30N 18°39' W 107°21'  
2018-May-03 20:45N 09°11' W 079°52'410.7
2018-May-03 20:24N 09°13' W 079°55'1 1.7
2018-May-03 19:59N 09°13' W 079°56'0 0.2
2018-May-03 19:30N 09°13' W 079°56'0 0.0
2018-May-03 14:07N 09°13' W 079°56'0 0.3
2018-May-03 14:00N 09°13' W 079°56'1 2.7
2018-May-03 13:30N 09°14' W 079°55'2 4.2
2018-May-03 13:00N 09°16' W 079°55'0 0.4
2018-May-03 12:30N 09°16' W 079°55'0 0.5
2018-May-03 12:00N 09°17' W 079°55'0 0.5
2018-May-03 11:30N 09°17' W 079°55'0 0.0
2018-May-03 11:00N 09°17' W 079°55'1 1.9
2018-May-03 10:30N 09°18' W 079°55'3 5.9
2018-May-03 10:00N 09°21' W 079°55'3 6.0
2018-May-03 09:30N 09°24' W 079°55'2 4.9
2018-May-03 09:00N 09°26' W 079°55'3 5.0
2018-May-03 08:26N 09°28' W 079°58'0 0.7
2018-May-03 08:00N 09°27' W 079°58'0 0.0
2018-May-03 06:18N 09°27' W 079°58'0 0.0
2018-May-03 05:57N 09°27' W 079°58'0 0.0
2018-May-03 05:27N 09°27' W 079°58'0 0.0
2018-May-03 05:00N 09°27' W 079°58'0 0.0
2018-May-03 03:27N 09°27' W 079°58'0 0.0
2018-May-03 01:33N 09°27' W 079°58'0 0.0
2018-May-03 01:18N 09°27' W 079°58'0 0.0
2018-May-03 00:48N 09°27' W 079°58'0 0.0
2018-May-03 00:30N 09°27' W 079°58'0 0.0
2018-May-02 23:57N 09°27' W 079°58'0 0.0
2018-May-02 23:09N 09°27' W 079°58'0 0.0
2018-May-02 22:57N 09°27' W 079°58'0 0.0
2018-May-02 22:18N 09°27' W 079°58'0 0.0
2018-May-02 22:00N 09°27' W 079°58'0 0.0
2018-May-02 21:27N 09°27' W 079°58'0 0.0
2018-May-02 19:45N 09°27' W 079°58'0 0.1
2018-May-02 19:27N 09°27' W 079°58'0 0.0
2018-May-02 18:39N 09°27' W 079°58'0 0.0
2018-May-02 18:18N 09°27' W 079°58'0 0.0
2018-May-02 18:00N 09°27' W 079°58'0 0.0
2018-May-02 16:15N 09°27' W 079°58'0 0.0
2018-May-02 15:57N 09°27' W 079°58'0 0.0
2018-May-02 15:30N 09°27' W 079°58'0 0.0
2018-May-02 15:00N 09°27' W 079°58'0 0.1
2018-May-02 14:30N 09°27' W 079°58'0 0.0
2018-May-02 13:42N 09°27' W 079°58'0 0.1
2018-May-02 13:30N 09°27' W 079°58'0 0.0
2018-May-02 12:29N 09°27' W 079°58'0 0.0
2018-May-02 11:53N 09°27' W 079°58'0 0.0
2018-May-02 11:11N 09°27' W 079°58'0 0.0
2018-May-02 10:59N 09°27' W 079°58'0 0.0
2018-May-02 09:53N 09°27' W 079°58'0 0.1
2018-May-02 09:29N 09°27' W 079°58'0 0.1
2018-May-02 08:37N 09°27' W 079°58'0 1.5
2018-May-02 08:30N 09°27' W 079°58'1 2.2
2018-May-02 07:59N 09°28' W 079°59'4 8.5
2018-May-02 07:30N 09°31' W 079°57'  
Track history (hours):
 
Tides and Currents Weather Stations Pressure Air Temp Water Temp Dewpoint Dewpoint Depression Visibility Wind Speed Wind Dir Waves Ship Positions

BBC Brazil

Last reported at 2018-May-10 07:09 UTC. Time now 2018-May-22 18:00 UTC.
Position N 18°43' W 107°29'.
Warning: this ship's position is 12 days out of date.

Length 228 m; draft 11 m.

Type: Ship. MMSI: 538005439.

Date/timePositionNaut miles runAvg speedWind from/ knotsBaromVisibWave heightAir tempDewpointWater temp
2018-May-10 07:09N 18°43' W 107°29'212.9
2018-May-10 06:59N 18°42' W 107°27'612.9
2018-May-10 06:30N 18°39' W 107°21'  
2018-May-03 20:45N 09°11' W 079°52'410.7
2018-May-03 20:24N 09°13' W 079°55'1 1.7
2018-May-03 19:59N 09°13' W 079°56'0 0.2
2018-May-03 19:30N 09°13' W 079°56'0 0.0
2018-May-03 14:07N 09°13' W 079°56'0 0.3
2018-May-03 14:00N 09°13' W 079°56'1 2.7
2018-May-03 13:30N 09°14' W 079°55'2 4.2
2018-May-03 13:00N 09°16' W 079°55'0 0.4
2018-May-03 12:30N 09°16' W 079°55'0 0.5
2018-May-03 12:00N 09°17' W 079°55'0 0.5
2018-May-03 11:30N 09°17' W 079°55'0 0.0
2018-May-03 11:00N 09°17' W 079°55'1 1.9
2018-May-03 10:30N 09°18' W 079°55'3 5.9
2018-May-03 10:00N 09°21' W 079°55'3 6.0
2018-May-03 09:30N 09°24' W 079°55'2 4.9
2018-May-03 09:00N 09°26' W 079°55'3 5.0
2018-May-03 08:26N 09°28' W 079°58'0 0.7
2018-May-03 08:00N 09°27' W 079°58'0 0.0
2018-May-03 06:18N 09°27' W 079°58'0 0.0
2018-May-03 05:57N 09°27' W 079°58'0 0.0
2018-May-03 05:27N 09°27' W 079°58'0 0.0
2018-May-03 05:00N 09°27' W 079°58'0 0.0
2018-May-03 03:27N 09°27' W 079°58'0 0.0
2018-May-03 01:33N 09°27' W 079°58'0 0.0
2018-May-03 01:18N 09°27' W 079°58'0 0.0
2018-May-03 00:48N 09°27' W 079°58'0 0.0
2018-May-03 00:30N 09°27' W 079°58'0 0.0
2018-May-02 23:57N 09°27' W 079°58'0 0.0
2018-May-02 23:09N 09°27' W 079°58'0 0.0
2018-May-02 22:57N 09°27' W 079°58'0 0.0
2018-May-02 22:18N 09°27' W 079°58'0 0.0
2018-May-02 22:00N 09°27' W 079°58'0 0.0
2018-May-02 21:27N 09°27' W 079°58'0 0.0
2018-May-02 19:45N 09°27' W 079°58'0 0.1
2018-May-02 19:27N 09°27' W 079°58'0 0.0
2018-May-02 18:39N 09°27' W 079°58'0 0.0
2018-May-02 18:18N 09°27' W 079°58'0 0.0
2018-May-02 18:00N 09°27' W 079°58'0 0.0
2018-May-02 16:15N 09°27' W 079°58'0 0.0
2018-May-02 15:57N 09°27' W 079°58'0 0.0
2018-May-02 15:30N 09°27' W 079°58'0 0.0
2018-May-02 15:00N 09°27' W 079°58'0 0.1
2018-May-02 14:30N 09°27' W 079°58'0 0.0
2018-May-02 13:42N 09°27' W 079°58'0 0.1
2018-May-02 13:30N 09°27' W 079°58'0 0.0
2018-May-02 12:29N 09°27' W 079°58'0 0.0
2018-May-02 11:53N 09°27' W 079°58'0 0.0
2018-May-02 11:11N 09°27' W 079°58'0 0.0
2018-May-02 10:59N 09°27' W 079°58'0 0.0
2018-May-02 09:53N 09°27' W 079°58'0 0.1
2018-May-02 09:29N 09°27' W 079°58'0 0.1
2018-May-02 08:37N 09°27' W 079°58'0 1.5
2018-May-02 08:30N 09°27' W 079°58'1 2.2
2018-May-02 07:59N 09°28' W 079°59'4 8.5
2018-May-02 07:30N 09°31' W 079°57'  

Dump ship's entire track history